Alvin, SC

3:01 AM EDT on October 24, 2014 (GMT -0400)
Santee Circle | Change Station
CLOSE
Current Station
Personal Weather Station
Location: Moncks Corner, SC
Elevation: 79 ft
Nearby Weather Stations

Elev 79 ft 33.23 °N, 79.97 °W | Updated 9 minutes ago

Clear
Clear
45.1 °F
Feels Like 45 °F
N
0.0
Wind Variable Wind from NW
Gusts 0.0 mph

Today
High -- | Low -- °F
--% Chance of Precip.
Yesterday
High -- | Low -- °F
Precip. -- in
7:30 AM 6:35 PM
New Moon, 0% visible
Pressure 30.02 in
Visibility 7.0 miles
Clouds Clear
Windchill 45 °F
Dew Point 44 °F
Humidity 96%
Rainfall 0.00 in
Snow Depth Not available.
UV 0 out of 12
Pollen 4.40 out of 12
Air Quality Not available.
Flu Activity Sporadic
METAR KMKS 240655Z AUTO 00000KT 7SM CLR 08/08 A3002 RMK AO2

More Conditions Fewer Conditions

Pressure 30.02 in
Visibility 7.0 miles
Clouds Clear
Windchill 45 °F
Dew Point 44 °F
Humidity 96%
Rainfall 0.00 in
Snow Depth Not available.
UV 0 out of 12
Pollen 4.40 out of 12
Air Quality Not available.
Flu Activity Sporadic
METAR KMKS 240655Z AUTO 00000KT 7SM CLR 08/08 A3002 RMK AO2

More Conditions Fewer Conditions

10-Day Weather Forecast

Almanac

Astronomy

Oct. 24, 2014 Rise Set
Actual Time 7:30 AM EDT 6:35 PM EDT
Civil Twilight 7:05 AM EDT 7:00 PM EDT
Nautical Twilight 6:36 AM EDT 7:29 PM EDT
Astronomical Twilight 6:07 AM EDT 7:58 PM EDT
Moon 8:06 AM EDT 7:16 PM EDT
Length of Visible Light 11h 55m
Length of Day
11h 04m
Tomorrow will be 1m 54s shorter.
New Moon, 0% of the Moon is Illuminated
Today
New Moon
Oct 30
First Quarter
Nov 6
Full
Nov 14
Last Quarter
Nov 22
New

Today's Extremes

State Highs State Lows

Community

WunderPhotos

Upload Photos

1,764,510 photos uploaded!

WunderBlogs® & News

Nearby

Air Quality

  Air Quality AQ Index Pollutant
Yesterday Good
PM2.5

Snow Depth

Station Depth Elevation
No new snow has been reported.

Earthquake Activity

City Distance Mag. Time & Date
No recent earthquake activity has been reported nearby.
Minimum magnitude displayed is 2.5.

Coastal Water Temperatures

Place Temperature
No Stations Reporting

Nearby Weather Stations